sensor_id;sensor_type;location;lat;lon;timestamp;pressure;altitude;pressure_sealevel;temperature;humidity
40946;BME280;55635;50.264;11.918;2023-07-29T00:01:40;95168.31;;;19.88;100.00
40946;BME280;55635;50.264;11.918;2023-07-29T00:04:21;95162.38;;;19.86;100.00
40946;BME280;55635;50.264;11.918;2023-07-29T00:07:02;95167.16;;;19.79;100.00
40946;BME280;55635;50.264;11.918;2023-07-29T00:09:43;95166.75;;;19.92;100.00
40946;BME280;55635;50.264;11.918;2023-07-29T00:12:24;95161.75;;;20.06;100.00
40946;BME280;55635;50.264;11.918;2023-07-29T00:15:06;95158.28;;;20.05;100.00
40946;BME280;55635;50.264;11.918;2023-07-29T00:17:47;95161.94;;;20.53;97.61
40946;BME280;55635;50.264;11.918;2023-07-29T00:20:28;95149.69;;;20.35;97.21
40946;BME280;55635;50.264;11.918;2023-07-29T00:23:09;95156.50;;;20.48;97.29
40946;BME280;55635;50.264;11.918;2023-07-29T00:25:50;95148.25;;;20.01;100.00
40946;BME280;55635;50.264;11.918;2023-07-29T00:28:31;95145.34;;;20.34;98.42
40946;BME280;55635;50.264;11.918;2023-07-29T00:31:13;95143.22;;;20.36;96.85
40946;BME280;55635;50.264;11.918;2023-07-29T00:33:54;95140.94;;;20.23;98.26
40946;BME280;55635;50.264;11.918;2023-07-29T00:36:35;95150.28;;;20.42;97.61
40946;BME280;55635;50.264;11.918;2023-07-29T00:39:16;95151.78;;;20.65;95.94
40946;BME280;55635;50.264;11.918;2023-07-29T00:41:58;95146.56;;;20.48;97.48
40946;BME280;55635;50.264;11.918;2023-07-29T00:44:38;95135.53;;;20.55;96.33
40946;BME280;55635;50.264;11.918;2023-07-29T00:47:20;95138.00;;;20.61;96.57
40946;BME280;55635;50.264;11.918;2023-07-29T00:50:04;95149.69;;;20.72;94.73
40946;BME280;55635;50.264;11.918;2023-07-29T00:52:46;95140.34;;;20.48;97.09
40946;BME280;55635;50.264;11.918;2023-07-29T00:55:28;95145.03;;;20.62;95.89
40946;BME280;55635;50.264;11.918;2023-07-29T00:58:10;95141.41;;;20.84;94.43
40946;BME280;55635;50.264;11.918;2023-07-29T01:00:52;95140.03;;;20.81;94.56
40946;BME280;55635;50.264;11.918;2023-07-29T01:03:35;95140.53;;;20.73;95.33
40946;BME280;55635;50.264;11.918;2023-07-29T01:06:41;95135.66;;;20.70;94.65
40946;BME280;55635;50.264;11.918;2023-07-29T01:13:06;95135.91;;;20.69;94.47
40946;BME280;55635;50.264;11.918;2023-07-29T01:15:58;95127.97;;;20.52;95.71
40946;BME280;55635;50.264;11.918;2023-07-29T01:18:42;95129.25;;;20.76;94.59
40946;BME280;55635;50.264;11.918;2023-07-29T01:21:27;95126.94;;;20.58;95.42
40946;BME280;55635;50.264;11.918;2023-07-29T01:24:08;95132.09;;;20.64;94.86
40946;BME280;55635;50.264;11.918;2023-07-29T01:26:50;95133.34;;;20.52;94.94
40946;BME280;55635;50.264;11.918;2023-07-29T01:29:32;95128.56;;;20.59;94.81
40946;BME280;55635;50.264;11.918;2023-07-29T01:35:52;95124.78;;;20.23;98.06
40946;BME280;55635;50.264;11.918;2023-07-29T01:38:40;95121.38;;;20.06;98.42
40946;BME280;55635;50.264;11.918;2023-07-29T01:41:25;95132.22;;;20.43;97.22
40946;BME280;55635;50.264;11.918;2023-07-29T01:44:07;95130.28;;;20.70;94.68
40946;BME280;55635;50.264;11.918;2023-07-29T01:46:49;95131.41;;;20.79;93.95
40946;BME280;55635;50.264;11.918;2023-07-29T01:49:30;95140.09;;;20.91;93.39
40946;BME280;55635;50.264;11.918;2023-07-29T01:52:13;95138.44;;;20.85;92.51
40946;BME280;55635;50.264;11.918;2023-07-29T01:54:54;95135.50;;;20.92;93.45
40946;BME280;55635;50.264;11.918;2023-07-29T01:57:35;95138.13;;;21.19;90.98
40946;BME280;55635;50.264;11.918;2023-07-29T02:00:18;95132.19;;;21.22;90.56
40946;BME280;55635;50.264;11.918;2023-07-29T02:03:00;95118.97;;;20.73;91.59
40946;BME280;55635;50.264;11.918;2023-07-29T02:05:41;95137.44;;;21.01;91.96
40946;BME280;55635;50.264;11.918;2023-07-29T02:08:24;95137.31;;;20.76;92.79
40946;BME280;55635;50.264;11.918;2023-07-29T02:11:05;95125.59;;;20.97;91.71
40946;BME280;55635;50.264;11.918;2023-07-29T02:13:47;95131.94;;;20.81;92.99
40946;BME280;55635;50.264;11.918;2023-07-29T02:16:28;95129.31;;;20.91;92.11
40946;BME280;55635;50.264;11.918;2023-07-29T02:19:09;95140.63;;;20.88;92.18
40946;BME280;55635;50.264;11.918;2023-07-29T02:21:50;95133.50;;;20.67;93.78
40946;BME280;55635;50.264;11.918;2023-07-29T02:24:31;95126.50;;;20.71;93.58
40946;BME280;55635;50.264;11.918;2023-07-29T02:27:12;95125.91;;;20.64;93.31
40946;BME280;55635;50.264;11.918;2023-07-29T02:29:54;95125.03;;;20.53;93.08
40946;BME280;55635;50.264;11.918;2023-07-29T02:32:35;95128.84;;;20.57;93.70
40946;BME280;55635;50.264;11.918;2023-07-29T02:35:16;95121.81;;;20.56;94.48
40946;BME280;55635;50.264;11.918;2023-07-29T02:37:57;95129.56;;;20.48;94.29
40946;BME280;55635;50.264;11.918;2023-07-29T02:40:38;95128.06;;;19.98;97.85
40946;BME280;55635;50.264;11.918;2023-07-29T02:43:22;95124.94;;;20.12;96.24
40946;BME280;55635;50.264;11.918;2023-07-29T02:46:03;95135.66;;;20.33;95.91
40946;BME280;55635;50.264;11.918;2023-07-29T02:48:45;95134.72;;;20.23;95.96
40946;BME280;55635;50.264;11.918;2023-07-29T02:51:26;95132.19;;;20.38;95.76
40946;BME280;55635;50.264;11.918;2023-07-29T02:54:06;95137.47;;;20.28;97.02
40946;BME280;55635;50.264;11.918;2023-07-29T02:56:49;95136.28;;;19.87;98.57
40946;BME280;55635;50.264;11.918;2023-07-29T02:59:30;95136.47;;;20.07;97.82
40946;BME280;55635;50.264;11.918;2023-07-29T03:02:11;95142.53;;;20.51;95.78
40946;BME280;55635;50.264;11.918;2023-07-29T03:04:52;95129.97;;;20.30;96.18
40946;BME280;55635;50.264;11.918;2023-07-29T03:07:33;95134.03;;;20.32;97.06
40946;BME280;55635;50.264;11.918;2023-07-29T03:10:14;95128.94;;;20.36;97.00
40946;BME280;55635;50.264;11.918;2023-07-29T03:12:56;95127.63;;;20.80;94.11
40946;BME280;55635;50.264;11.918;2023-07-29T03:15:37;95132.75;;;20.82;93.67
40946;BME280;55635;50.264;11.918;2023-07-29T03:18:18;95134.66;;;20.44;97.07
40946;BME280;55635;50.264;11.918;2023-07-29T03:20:59;95120.34;;;20.39;96.41
40946;BME280;55635;50.264;11.918;2023-07-29T03:23:40;95126.09;;;20.52;96.12
40946;BME280;55635;50.264;11.918;2023-07-29T03:26:22;95122.94;;;20.60;94.96
40946;BME280;55635;50.264;11.918;2023-07-29T03:29:03;95132.25;;;20.85;94.28
40946;BME280;55635;50.264;11.918;2023-07-29T03:31:44;95130.66;;;20.52;95.18
40946;BME280;55635;50.264;11.918;2023-07-29T03:34:25;95134.63;;;20.13;98.08
40946;BME280;55635;50.264;11.918;2023-07-29T03:37:06;95131.69;;;20.14;97.12
40946;BME280;55635;50.264;11.918;2023-07-29T03:39:47;95125.88;;;19.95;99.88
40946;BME280;55635;50.264;11.918;2023-07-29T03:42:28;95125.47;;;20.08;99.45
40946;BME280;55635;50.264;11.918;2023-07-29T03:45:09;95123.66;;;19.87;100.00
40946;BME280;55635;50.264;11.918;2023-07-29T03:47:50;95122.88;;;19.92;100.00
40946;BME280;55635;50.264;11.918;2023-07-29T03:50:34;95120.94;;;20.14;98.76
40946;BME280;55635;50.264;11.918;2023-07-29T03:53:16;95117.66;;;20.12;98.50
40946;BME280;55635;50.264;11.918;2023-07-29T03:55:57;95113.09;;;20.13;98.43
40946;BME280;55635;50.264;11.918;2023-07-29T03:58:38;95110.69;;;20.11;97.52
40946;BME280;55635;50.264;11.918;2023-07-29T04:01:20;95103.22;;;19.91;98.63
40946;BME280;55635;50.264;11.918;2023-07-29T04:04:01;95103.56;;;20.00;98.98
40946;BME280;55635;50.264;11.918;2023-07-29T04:06:42;95097.78;;;19.81;99.60
40946;BME280;55635;50.264;11.918;2023-07-29T04:09:23;95107.91;;;19.47;100.00
40946;BME280;55635;50.264;11.918;2023-07-29T04:12:04;95110.81;;;19.41;100.00
40946;BME280;55635;50.264;11.918;2023-07-29T04:14:46;95110.78;;;19.63;100.00
40946;BME280;55635;50.264;11.918;2023-07-29T04:17:27;95115.25;;;19.57;100.00
40946;BME280;55635;50.264;11.918;2023-07-29T04:20:08;95107.19;;;19.57;100.00
40946;BME280;55635;50.264;11.918;2023-07-29T04:22:50;95108.50;;;19.54;100.00
40946;BME280;55635;50.264;11.918;2023-07-29T04:25:31;95098.03;;;19.85;100.00
40946;BME280;55635;50.264;11.918;2023-07-29T04:28:12;95109.13;;;19.88;100.00
40946;BME280;55635;50.264;11.918;2023-07-29T04:30:53;95096.88;;;20.02;98.51
40946;BME280;55635;50.264;11.918;2023-07-29T04:33:34;95102.97;;;19.93;98.89
40946;BME280;55635;50.264;11.918;2023-07-29T04:36:15;95096.09;;;20.07;98.13
40946;BME280;55635;50.264;11.918;2023-07-29T04:38:59;95090.75;;;20.12;97.57
40946;BME280;55635;50.264;11.918;2023-07-29T04:41:40;95066.97;;;19.99;97.34
40946;BME280;55635;50.264;11.918;2023-07-29T04:44:20;95055.00;;;19.31;100.00
40946;BME280;55635;50.264;11.918;2023-07-29T04:47:02;95086.50;;;19.84;98.03
40946;BME280;55635;50.264;11.918;2023-07-29T04:49:43;95099.28;;;19.45;99.60
40946;BME280;55635;50.264;11.918;2023-07-29T04:52:23;95086.41;;;19.74;98.41
40946;BME280;55635;50.264;11.918;2023-07-29T04:55:05;95098.03;;;19.31;100.00
40946;BME280;55635;50.264;11.918;2023-07-29T04:57:46;95091.47;;;19.71;100.00
40946;BME280;55635;50.264;11.918;2023-07-29T05:00:27;95088.28;;;19.74;100.00
40946;BME280;55635;50.264;11.918;2023-07-29T05:03:07;95093.44;;;19.80;100.00
40946;BME280;55635;50.264;11.918;2023-07-29T05:05:48;95109.38;;;20.19;98.13
40946;BME280;55635;50.264;11.918;2023-07-29T05:08:30;95112.31;;;20.44;97.61
40946;BME280;55635;50.264;11.918;2023-07-29T05:11:11;95112.22;;;20.02;98.30
40946;BME280;55635;50.264;11.918;2023-07-29T05:13:51;95106.94;;;19.85;98.33
40946;BME280;55635;50.264;11.918;2023-07-29T05:16:32;95110.75;;;19.89;98.93
40946;BME280;55635;50.264;11.918;2023-07-29T05:19:13;95118.91;;;19.73;97.92
40946;BME280;55635;50.264;11.918;2023-07-29T05:21:55;95119.91;;;20.20;95.72
40946;BME280;55635;50.264;11.918;2023-07-29T05:24:36;95123.28;;;20.05;96.54
40946;BME280;55635;50.264;11.918;2023-07-29T05:27:17;95126.41;;;20.24;94.89
40946;BME280;55635;50.264;11.918;2023-07-29T05:29:58;95128.00;;;19.67;97.53
40946;BME280;55635;50.264;11.918;2023-07-29T05:32:39;95124.72;;;19.86;96.20
40946;BME280;55635;50.264;11.918;2023-07-29T05:35:20;95126.03;;;20.16;96.13
40946;BME280;55635;50.264;11.918;2023-07-29T05:38:01;95126.41;;;19.97;96.08
40946;BME280;55635;50.264;11.918;2023-07-29T05:40:44;95125.59;;;19.97;95.50
40946;BME280;55635;50.264;11.918;2023-07-29T05:43:25;95136.19;;;19.77;97.23
40946;BME280;55635;50.264;11.918;2023-07-29T05:46:06;95147.72;;;19.99;96.67
40946;BME280;55635;50.264;11.918;2023-07-29T05:48:47;95138.84;;;20.03;95.36
40946;BME280;55635;50.264;11.918;2023-07-29T05:51:28;95151.09;;;20.16;94.72
40946;BME280;55635;50.264;11.918;2023-07-29T05:54:09;95138.22;;;20.18;93.97
40946;BME280;55635;50.264;11.918;2023-07-29T05:56:50;95142.34;;;20.68;92.58
40946;BME280;55635;50.264;11.918;2023-07-29T05:59:31;95143.03;;;20.48;91.89
40946;BME280;55635;50.264;11.918;2023-07-29T06:02:12;95137.16;;;20.56;92.57
40946;BME280;55635;50.264;11.918;2023-07-29T06:04:53;95120.81;;;21.09;89.67
40946;BME280;55635;50.264;11.918;2023-07-29T06:07:34;95135.72;;;21.22;88.55
40946;BME280;55635;50.264;11.918;2023-07-29T06:10:17;95117.72;;;21.48;86.67
40946;BME280;55635;50.264;11.918;2023-07-29T06:13:01;95115.63;;;21.03;87.28
40946;BME280;55635;50.264;11.918;2023-07-29T06:15:41;95078.97;;;20.55;89.26
40946;BME280;55635;50.264;11.918;2023-07-29T06:18:22;95075.19;;;21.03;89.25
40946;BME280;55635;50.264;11.918;2023-07-29T06:21:03;95053.22;;;21.41;85.78
40946;BME280;55635;50.264;11.918;2023-07-29T06:23:51;95065.03;;;21.20;87.77
40946;BME280;55635;50.264;11.918;2023-07-29T06:26:31;95084.78;;;20.84;89.64
40946;BME280;55635;50.264;11.918;2023-07-29T06:29:12;95095.50;;;20.32;91.60
40946;BME280;55635;50.264;11.918;2023-07-29T06:31:53;95106.63;;;20.08;92.52
40946;BME280;55635;50.264;11.918;2023-07-29T06:34:35;95111.50;;;20.12;93.36
40946;BME280;55635;50.264;11.918;2023-07-29T06:37:15;95105.53;;;20.09;95.29
40946;BME280;55635;50.264;11.918;2023-07-29T06:39:56;95110.56;;;20.28;95.67
40946;BME280;55635;50.264;11.918;2023-07-29T06:42:37;95096.81;;;19.97;95.93
40946;BME280;55635;50.264;11.918;2023-07-29T06:45:18;95100.91;;;19.73;96.40
40946;BME280;55635;50.264;11.918;2023-07-29T06:47:59;95095.34;;;19.85;97.46
40946;BME280;55635;50.264;11.918;2023-07-29T06:50:40;95091.28;;;20.46;94.40
40946;BME280;55635;50.264;11.918;2023-07-29T06:53:21;95078.66;;;20.46;94.53
40946;BME280;55635;50.264;11.918;2023-07-29T06:56:02;95077.16;;;19.97;93.78
40946;BME280;55635;50.264;11.918;2023-07-29T06:58:43;95074.59;;;20.44;91.40
40946;BME280;55635;50.264;11.918;2023-07-29T07:01:24;95080.59;;;20.56;91.63
40946;BME280;55635;50.264;11.918;2023-07-29T07:04:05;95078.31;;;20.33;91.37
40946;BME280;55635;50.264;11.918;2023-07-29T07:06:46;95074.22;;;20.67;90.82
40946;BME280;55635;50.264;11.918;2023-07-29T07:09:26;95073.56;;;20.50;89.23
40946;BME280;55635;50.264;11.918;2023-07-29T07:12:07;95059.78;;;20.93;88.44
40946;BME280;55635;50.264;11.918;2023-07-29T07:14:48;95064.81;;;21.47;87.10
40946;BME280;55635;50.264;11.918;2023-07-29T07:17:29;95059.44;;;21.42;85.98
40946;BME280;55635;50.264;11.918;2023-07-29T07:20:11;95059.00;;;21.90;84.59
40946;BME280;55635;50.264;11.918;2023-07-29T07:22:52;95048.19;;;22.31;82.11
40946;BME280;55635;50.264;11.918;2023-07-29T07:25:33;95063.31;;;21.96;80.82
40946;BME280;55635;50.264;11.918;2023-07-29T07:28:13;95066.50;;;21.63;80.96
40946;BME280;55635;50.264;11.918;2023-07-29T07:30:54;95056.53;;;21.84;81.43
40946;BME280;55635;50.264;11.918;2023-07-29T07:33:36;95067.06;;;22.71;78.67
40946;BME280;55635;50.264;11.918;2023-07-29T07:36:17;95060.59;;;23.36;75.45
40946;BME280;55635;50.264;11.918;2023-07-29T07:38:58;95046.94;;;23.07;76.08
40946;BME280;55635;50.264;11.918;2023-07-29T07:41:40;95048.44;;;22.39;78.32
40946;BME280;55635;50.264;11.918;2023-07-29T07:44:22;95045.97;;;22.48;78.07
40946;BME280;55635;50.264;11.918;2023-07-29T07:47:03;95048.72;;;22.28;79.88
40946;BME280;55635;50.264;11.918;2023-07-29T07:49:44;95054.09;;;21.72;80.45
40946;BME280;55635;50.264;11.918;2023-07-29T07:52:25;95060.25;;;21.47;83.59
40946;BME280;55635;50.264;11.918;2023-07-29T07:55:06;95052.66;;;21.19;84.13
40946;BME280;55635;50.264;11.918;2023-07-29T07:57:47;95072.44;;;20.88;87.33
40946;BME280;55635;50.264;11.918;2023-07-29T08:00:28;95087.41;;;20.69;91.53
40946;BME280;55635;50.264;11.918;2023-07-29T08:03:09;95093.34;;;21.17;92.77
40946;BME280;55635;50.264;11.918;2023-07-29T08:05:50;95090.28;;;21.04;94.25
40946;BME280;55635;50.264;11.918;2023-07-29T08:08:31;95081.28;;;20.83;93.82
40946;BME280;55635;50.264;11.918;2023-07-29T08:11:12;95088.03;;;20.86;94.99
40946;BME280;55635;50.264;11.918;2023-07-29T08:13:53;95103.47;;;20.48;97.45
40946;BME280;55635;50.264;11.918;2023-07-29T08:16:34;95083.19;;;19.77;100.00
40946;BME280;55635;50.264;11.918;2023-07-29T08:19:14;95097.50;;;19.56;100.00
40946;BME280;55635;50.264;11.918;2023-07-29T08:21:55;95110.66;;;19.31;100.00
40946;BME280;55635;50.264;11.918;2023-07-29T08:24:36;95089.75;;;19.38;100.00
40946;BME280;55635;50.264;11.918;2023-07-29T08:27:17;95095.03;;;19.49;100.00
40946;BME280;55635;50.264;11.918;2023-07-29T08:29:58;95088.56;;;19.77;100.00
40946;BME280;55635;50.264;11.918;2023-07-29T08:32:39;95099.00;;;20.00;100.00
40946;BME280;55635;50.264;11.918;2023-07-29T08:35:20;95101.00;;;20.15;100.00
40946;BME280;55635;50.264;11.918;2023-07-29T08:38:02;95095.84;;;20.40;100.00
40946;BME280;55635;50.264;11.918;2023-07-29T08:44:26;95112.28;;;20.39;100.00
40946;BME280;55635;50.264;11.918;2023-07-29T08:47:07;95101.28;;;20.14;100.00
40946;BME280;55635;50.264;11.918;2023-07-29T08:49:48;95105.97;;;20.28;100.00
40946;BME280;55635;50.264;11.918;2023-07-29T08:52:32;95102.56;;;20.38;100.00
40946;BME280;55635;50.264;11.918;2023-07-29T08:55:13;95102.97;;;20.56;100.00
40946;BME280;55635;50.264;11.918;2023-07-29T08:57:54;95089.34;;;20.78;100.00
40946;BME280;55635;50.264;11.918;2023-07-29T09:00:35;95091.59;;;20.96;100.00
40946;BME280;55635;50.264;11.918;2023-07-29T09:03:17;95095.66;;;20.99;99.04
40946;BME280;55635;50.264;11.918;2023-07-29T09:05:59;95094.84;;;20.98;99.93
40946;BME280;55635;50.264;11.918;2023-07-29T09:08:40;95085.91;;;20.93;99.45
40946;BME280;55635;50.264;11.918;2023-07-29T09:11:21;95080.41;;;21.20;98.98
40946;BME280;55635;50.264;11.918;2023-07-29T09:14:02;95086.94;;;21.34;98.13
40946;BME280;55635;50.264;11.918;2023-07-29T09:16:43;95073.78;;;20.95;95.54
40946;BME280;55635;50.264;11.918;2023-07-29T09:19:27;95090.25;;;21.66;95.97
40946;BME280;55635;50.264;11.918;2023-07-29T09:22:18;95098.91;;;21.73;94.91
40946;BME280;55635;50.264;11.918;2023-07-29T09:25:00;95083.66;;;21.27;93.88
40946;BME280;55635;50.264;11.918;2023-07-29T09:27:41;95082.56;;;21.17;96.23
40946;BME280;55635;50.264;11.918;2023-07-29T09:30:22;95079.41;;;21.46;95.94
40946;BME280;55635;50.264;11.918;2023-07-29T09:33:06;95088.91;;;20.96;96.93
40946;BME280;55635;50.264;11.918;2023-07-29T09:35:47;95093.88;;;21.14;97.25
40946;BME280;55635;50.264;11.918;2023-07-29T09:38:28;95109.50;;;20.71;99.92
40946;BME280;55635;50.264;11.918;2023-07-29T09:41:13;95105.47;;;20.31;100.00
40946;BME280;55635;50.264;11.918;2023-07-29T09:43:59;95102.78;;;20.31;100.00
40946;BME280;55635;50.264;11.918;2023-07-29T09:46:46;95098.75;;;20.34;100.00
40946;BME280;55635;50.264;11.918;2023-07-29T09:49:27;95103.69;;;20.42;100.00
40946;BME280;55635;50.264;11.918;2023-07-29T09:52:08;95097.44;;;20.04;100.00
40946;BME280;55635;50.264;11.918;2023-07-29T09:54:49;95108.38;;;19.93;100.00
40946;BME280;55635;50.264;11.918;2023-07-29T09:57:31;95125.25;;;20.47;100.00
40946;BME280;55635;50.264;11.918;2023-07-29T10:00:13;95108.34;;;20.25;100.00
40946;BME280;55635;50.264;11.918;2023-07-29T10:02:54;95104.09;;;20.66;100.00
40946;BME280;55635;50.264;11.918;2023-07-29T10:05:36;95105.22;;;20.75;100.00
40946;BME280;55635;50.264;11.918;2023-07-29T10:08:20;95103.75;;;21.04;97.38
40946;BME280;55635;50.264;11.918;2023-07-29T10:11:04;95115.09;;;21.06;99.07
40946;BME280;55635;50.264;11.918;2023-07-29T10:13:46;95108.88;;;21.00;97.10
40946;BME280;55635;50.264;11.918;2023-07-29T10:16:27;95118.78;;;20.90;99.06
40946;BME280;55635;50.264;11.918;2023-07-29T10:19:09;95101.97;;;21.20;98.59
40946;BME280;55635;50.264;11.918;2023-07-29T10:21:50;95091.47;;;21.23;95.89
40946;BME280;55635;50.264;11.918;2023-07-29T10:24:33;95086.22;;;20.96;96.75
40946;BME280;55635;50.264;11.918;2023-07-29T10:27:18;95094.94;;;21.13;98.76
40946;BME280;55635;50.264;11.918;2023-07-29T10:30:00;95098.09;;;21.00;97.30
40946;BME280;55635;50.264;11.918;2023-07-29T10:32:45;95094.53;;;20.95;97.90
40946;BME280;55635;50.264;11.918;2023-07-29T10:35:26;95103.06;;;20.77;100.00
40946;BME280;55635;50.264;11.918;2023-07-29T10:38:08;95100.00;;;20.58;98.55
40946;BME280;55635;50.264;11.918;2023-07-29T10:40:56;95092.19;;;21.03;99.42
40946;BME280;55635;50.264;11.918;2023-07-29T10:43:39;95090.88;;;22.13;95.36
40946;BME280;55635;50.264;11.918;2023-07-29T10:46:22;95084.34;;;22.45;93.60
40946;BME280;55635;50.264;11.918;2023-07-29T10:49:03;95093.28;;;22.40;92.56
40946;BME280;55635;50.264;11.918;2023-07-29T10:51:44;95075.97;;;22.51;92.21
40946;BME280;55635;50.264;11.918;2023-07-29T10:54:25;95080.28;;;22.83;88.93
40946;BME280;55635;50.264;11.918;2023-07-29T10:57:06;95073.63;;;23.24;86.92
40946;BME280;55635;50.264;11.918;2023-07-29T10:59:55;95058.69;;;23.85;83.88
40946;BME280;55635;50.264;11.918;2023-07-29T11:02:38;95069.06;;;23.19;91.06
40946;BME280;55635;50.264;11.918;2023-07-29T11:05:19;95062.25;;;23.32;88.48
40946;BME280;55635;50.264;11.918;2023-07-29T11:08:20;95054.94;;;23.27;81.35
40946;BME280;55635;50.264;11.918;2023-07-29T11:11:07;95046.31;;;24.18;82.21
40946;BME280;55635;50.264;11.918;2023-07-29T11:13:48;95045.56;;;24.65;84.00
40946;BME280;55635;50.264;11.918;2023-07-29T11:16:30;95033.44;;;24.29;79.13
40946;BME280;55635;50.264;11.918;2023-07-29T11:19:15;95029.91;;;23.95;80.41
40946;BME280;55635;50.264;11.918;2023-07-29T11:22:00;95033.81;;;22.55;84.18
40946;BME280;55635;50.264;11.918;2023-07-29T11:24:42;95040.09;;;22.26;88.04
40946;BME280;55635;50.264;11.918;2023-07-29T11:27:23;95039.97;;;22.86;87.60
40946;BME280;55635;50.264;11.918;2023-07-29T11:30:07;95042.53;;;22.32;87.57
40946;BME280;55635;50.264;11.918;2023-07-29T11:32:51;95041.69;;;22.37;89.08
40946;BME280;55635;50.264;11.918;2023-07-29T11:35:33;95039.84;;;23.16;83.80
40946;BME280;55635;50.264;11.918;2023-07-29T11:38:16;95037.34;;;22.56;85.92
40946;BME280;55635;50.264;11.918;2023-07-29T11:41:01;95042.84;;;23.69;83.69
40946;BME280;55635;50.264;11.918;2023-07-29T11:43:46;95047.59;;;23.38;82.54
40946;BME280;55635;50.264;11.918;2023-07-29T11:46:27;95043.78;;;23.49;79.25
40946;BME280;55635;50.264;11.918;2023-07-29T11:49:08;95039.63;;;25.58;76.23
40946;BME280;55635;50.264;11.918;2023-07-29T11:51:49;95037.34;;;26.35;69.56
40946;BME280;55635;50.264;11.918;2023-07-29T11:54:30;95039.47;;;25.50;70.88
40946;BME280;55635;50.264;11.918;2023-07-29T11:57:11;95052.47;;;25.48;70.87
40946;BME280;55635;50.264;11.918;2023-07-29T11:59:53;95040.59;;;25.43;71.88
40946;BME280;55635;50.264;11.918;2023-07-29T12:02:38;95023.00;;;25.78;70.41
40946;BME280;55635;50.264;11.918;2023-07-29T12:05:21;95024.25;;;26.69;71.25
40946;BME280;55635;50.264;11.918;2023-07-29T12:08:03;95038.66;;;24.83;72.01
40946;BME280;55635;50.264;11.918;2023-07-29T12:10:44;95024.28;;;24.54;73.17
40946;BME280;55635;50.264;11.918;2023-07-29T12:13:25;95026.75;;;24.50;75.57
40946;BME280;55635;50.264;11.918;2023-07-29T12:16:06;95024.97;;;26.42;70.54
40946;BME280;55635;50.264;11.918;2023-07-29T12:18:49;95015.03;;;26.51;63.14
40946;BME280;55635;50.264;11.918;2023-07-29T12:21:30;95018.63;;;27.07;62.06
40946;BME280;55635;50.264;11.918;2023-07-29T12:24:15;95010.09;;;27.63;59.52
40946;BME280;55635;50.264;11.918;2023-07-29T12:26:56;95009.88;;;27.73;61.06
40946;BME280;55635;50.264;11.918;2023-07-29T12:29:43;95011.13;;;27.39;59.42
40946;BME280;55635;50.264;11.918;2023-07-29T12:32:25;94997.13;;;28.71;60.58
40946;BME280;55635;50.264;11.918;2023-07-29T12:35:10;94999.72;;;28.84;58.56
40946;BME280;55635;50.264;11.918;2023-07-29T12:38:00;94988.34;;;29.39;57.52
40946;BME280;55635;50.264;11.918;2023-07-29T12:40:41;94989.97;;;28.92;57.65
40946;BME280;55635;50.264;11.918;2023-07-29T12:43:25;94987.97;;;27.01;63.20
40946;BME280;55635;50.264;11.918;2023-07-29T12:46:06;94983.53;;;25.99;61.21
40946;BME280;55635;50.264;11.918;2023-07-29T12:48:47;94988.97;;;26.18;62.90
40946;BME280;55635;50.264;11.918;2023-07-29T12:51:28;94980.34;;;27.03;59.37
40946;BME280;55635;50.264;11.918;2023-07-29T12:54:09;94974.53;;;26.50;60.76
40946;BME280;55635;50.264;11.918;2023-07-29T12:56:50;94981.88;;;26.49;59.88
40946;BME280;55635;50.264;11.918;2023-07-29T12:59:31;94980.91;;;26.59;59.32
40946;BME280;55635;50.264;11.918;2023-07-29T13:02:12;94992.94;;;26.07;60.31
40946;BME280;55635;50.264;11.918;2023-07-29T13:04:53;94986.84;;;26.47;59.69
40946;BME280;55635;50.264;11.918;2023-07-29T13:07:34;94973.16;;;26.80;59.95
40946;BME280;55635;50.264;11.918;2023-07-29T13:10:15;94968.00;;;27.19;59.77
40946;BME280;55635;50.264;11.918;2023-07-29T13:12:56;94965.13;;;27.51;58.02
40946;BME280;55635;50.264;11.918;2023-07-29T13:15:37;94973.03;;;27.26;60.06
40946;BME280;55635;50.264;11.918;2023-07-29T13:18:18;94974.94;;;27.25;58.09
40946;BME280;55635;50.264;11.918;2023-07-29T13:20:59;94968.75;;;26.24;60.99
40946;BME280;55635;50.264;11.918;2023-07-29T13:23:43;94956.47;;;27.72;57.01
40946;BME280;55635;50.264;11.918;2023-07-29T13:26:24;94950.97;;;27.63;57.26
40946;BME280;55635;50.264;11.918;2023-07-29T13:29:05;94958.63;;;28.19;55.96
40946;BME280;55635;50.264;11.918;2023-07-29T13:31:46;94952.72;;;28.03;55.67
40946;BME280;55635;50.264;11.918;2023-07-29T13:34:27;94953.69;;;27.27;58.45
40946;BME280;55635;50.264;11.918;2023-07-29T13:37:07;94944.91;;;27.66;58.52
40946;BME280;55635;50.264;11.918;2023-07-29T13:39:48;94948.84;;;28.88;56.02
40946;BME280;55635;50.264;11.918;2023-07-29T13:42:29;94936.41;;;29.22;52.66
40946;BME280;55635;50.264;11.918;2023-07-29T13:45:10;94940.16;;;28.16;52.44
40946;BME280;55635;50.264;11.918;2023-07-29T13:47:51;94923.53;;;28.04;53.07
40946;BME280;55635;50.264;11.918;2023-07-29T13:50:32;94939.94;;;28.66;53.36
40946;BME280;55635;50.264;11.918;2023-07-29T13:53:13;94935.72;;;28.29;54.56
40946;BME280;55635;50.264;11.918;2023-07-29T13:55:54;94929.59;;;28.01;54.42
40946;BME280;55635;50.264;11.918;2023-07-29T13:58:35;94931.47;;;28.14;54.74
40946;BME280;55635;50.264;11.918;2023-07-29T14:01:15;94928.25;;;28.12;54.74
40946;BME280;55635;50.264;11.918;2023-07-29T14:03:56;94922.47;;;29.40;52.38
40946;BME280;55635;50.264;11.918;2023-07-29T14:06:37;94927.47;;;28.90;52.36
40946;BME280;55635;50.264;11.918;2023-07-29T14:09:18;94929.22;;;27.49;54.99
40946;BME280;55635;50.264;11.918;2023-07-29T14:11:59;94936.69;;;26.81;54.41
40946;BME280;55635;50.264;11.918;2023-07-29T14:14:40;94929.19;;;27.85;53.93